Portada
METAR-TAF:

METAR-TAF

Aeroports :

Winnipeg, Manitoba, Canadà

latitud: 49-54N, longitud: 097-14W, altitud: 239 m

Observació

L'informe es va fer fa 57 minuts, a les 19:00 UTC
Vent 14 kt del Sud/Sud-Oest
Temperatura 29°C
Humitat 40%
Pressió 1014 hPa
Visibilitat: 24.1 km
Núvols disperses a una alçada de 25000 ft

METAR: CYWG 181900Z 20014KT 15SM SCT250 29/14 A2993 RMK CI4 SLP136 DENSITY ALT 2600FT

Hora: 14:57 (19:57 UTC)

Pronòstic

L'informe es va fer fa 2 hores i 12 minuts, a les 17:45 UTC
Pronòstic vàlid del 18 a les 18 UTC al 19 a les 18 UTC
Vent 12 kt del Sud/Sud-Oest
Visibilitat: 10 km
Cel ennuvolat a una alçada de 25000 ft
A partir de les 19 a les 1400 UTC
Vent 15 kt del Oest/Sud-Oest
Visibilitat: 10 km
Núvols disperses a una alçada de 6000 ft
Cel ennuvolat a una alçada de 12000 ft
Cel cobert a una alçada de 22000 ft

TAF: CYWG 181745Z 1818/1918 20012KT P6SM BKN250 FM191400 24015KT P6SM SCT060 BKN120 OVC220 RMK NXT FCST BY 190000Z

Observacions i pronòstics meteorològics de més de 4000 aeroports (METAR i TAF).

Les estacions disponibles són els punts grocs i vermells al mapa.

Posi el ratolí al punt desitjat per veure el nom de l'estació.

Feu clic per veure les observacions i els pronòstics meteorològics.

Per canviar el mapa: feu clic els botons verds amb una creu de color negre per apropar; al botó verd amb un guió per allunyar la imatge; o en les fletxes verdes per a mapes adjacents.


METAR-TAF: